sensor_id;sensor_type;location;lat;lon;timestamp;P1;durP1;ratioP1;P2;durP2;ratioP2
10244;SDS011;5167;52.164;10.530;2023-02-11T00:02:01;41.00;;;20.13;;
10244;SDS011;5167;52.164;10.530;2023-02-11T00:04:28;37.80;;;18.10;;
10244;SDS011;5167;52.164;10.530;2023-02-11T00:06:54;39.07;;;19.33;;
10244;SDS011;5167;52.164;10.530;2023-02-11T00:09:20;46.03;;;20.47;;
10244;SDS011;5167;52.164;10.530;2023-02-11T00:11:46;38.20;;;19.00;;
10244;SDS011;5167;52.164;10.530;2023-02-11T00:14:11;41.17;;;19.20;;
10244;SDS011;5167;52.164;10.530;2023-02-11T00:16:37;41.13;;;18.40;;
10244;SDS011;5167;52.164;10.530;2023-02-11T00:19:02;40.83;;;19.93;;
10244;SDS011;5167;52.164;10.530;2023-02-11T00:21:30;43.10;;;18.67;;
10244;SDS011;5167;52.164;10.530;2023-02-11T00:23:56;41.57;;;19.63;;
10244;SDS011;5167;52.164;10.530;2023-02-11T00:26:24;46.33;;;21.90;;
10244;SDS011;5167;52.164;10.530;2023-02-11T00:28:52;39.57;;;20.37;;
10244;SDS011;5167;52.164;10.530;2023-02-11T00:31:19;44.23;;;19.37;;
10244;SDS011;5167;52.164;10.530;2023-02-11T00:33:45;43.10;;;20.23;;
10244;SDS011;5167;52.164;10.530;2023-02-11T00:36:16;44.23;;;20.87;;
10244;SDS011;5167;52.164;10.530;2023-02-11T00:38:44;46.37;;;20.03;;
10244;SDS011;5167;52.164;10.530;2023-02-11T00:41:11;40.90;;;18.37;;
10244;SDS011;5167;52.164;10.530;2023-02-11T00:43:37;43.77;;;20.43;;
10244;SDS011;5167;52.164;10.530;2023-02-11T00:46:04;44.73;;;19.60;;
10244;SDS011;5167;52.164;10.530;2023-02-11T00:48:30;45.63;;;20.07;;
10244;SDS011;5167;52.164;10.530;2023-02-11T00:50:55;42.60;;;20.70;;
10244;SDS011;5167;52.164;10.530;2023-02-11T00:53:21;37.60;;;19.33;;
10244;SDS011;5167;52.164;10.530;2023-02-11T00:55:47;44.57;;;19.73;;
10244;SDS011;5167;52.164;10.530;2023-02-11T00:58:12;39.73;;;19.60;;
10244;SDS011;5167;52.164;10.530;2023-02-11T01:00:38;47.20;;;20.57;;
10244;SDS011;5167;52.164;10.530;2023-02-11T01:03:03;42.87;;;19.47;;
10244;SDS011;5167;52.164;10.530;2023-02-11T01:05:29;48.87;;;23.00;;
10244;SDS011;5167;52.164;10.530;2023-02-11T01:07:55;48.20;;;21.27;;
10244;SDS011;5167;52.164;10.530;2023-02-11T01:10:21;42.87;;;21.97;;
10244;SDS011;5167;52.164;10.530;2023-02-11T01:12:47;45.37;;;20.30;;
10244;SDS011;5167;52.164;10.530;2023-02-11T01:15:13;48.93;;;21.07;;
10244;SDS011;5167;52.164;10.530;2023-02-11T01:17:40;46.33;;;21.43;;
10244;SDS011;5167;52.164;10.530;2023-02-11T01:20:06;46.27;;;21.00;;
10244;SDS011;5167;52.164;10.530;2023-02-11T01:22:35;46.27;;;20.93;;
10244;SDS011;5167;52.164;10.530;2023-02-11T01:25:03;46.90;;;21.67;;
10244;SDS011;5167;52.164;10.530;2023-02-11T01:27:30;44.07;;;20.73;;
10244;SDS011;5167;52.164;10.530;2023-02-11T01:29:55;47.87;;;21.50;;
10244;SDS011;5167;52.164;10.530;2023-02-11T01:32:21;45.63;;;21.37;;
10244;SDS011;5167;52.164;10.530;2023-02-11T01:34:47;43.57;;;21.47;;
10244;SDS011;5167;52.164;10.530;2023-02-11T01:37:12;45.10;;;21.63;;
10244;SDS011;5167;52.164;10.530;2023-02-11T01:39:38;44.40;;;21.63;;
10244;SDS011;5167;52.164;10.530;2023-02-11T01:42:03;48.27;;;22.10;;
10244;SDS011;5167;52.164;10.530;2023-02-11T01:44:30;49.03;;;21.63;;
10244;SDS011;5167;52.164;10.530;2023-02-11T01:46:57;45.40;;;23.07;;
10244;SDS011;5167;52.164;10.530;2023-02-11T01:49:32;55.77;;;22.33;;
10244;SDS011;5167;52.164;10.530;2023-02-11T01:54:34;50.37;;;23.37;;
10244;SDS011;5167;52.164;10.530;2023-02-11T01:57:22;54.77;;;22.93;;
10244;SDS011;5167;52.164;10.530;2023-02-11T02:02:59;50.43;;;21.93;;
10244;SDS011;5167;52.164;10.530;2023-02-11T02:05:44;54.00;;;22.90;;
10244;SDS011;5167;52.164;10.530;2023-02-11T02:08:15;47.97;;;22.27;;
10244;SDS011;5167;52.164;10.530;2023-02-11T02:11:00;51.67;;;22.33;;
10244;SDS011;5167;52.164;10.530;2023-02-11T02:13:27;55.07;;;23.40;;
10244;SDS011;5167;52.164;10.530;2023-02-11T02:26:59;53.13;;;22.97;;
10244;SDS011;5167;52.164;10.530;2023-02-11T02:37:49;48.30;;;23.83;;
10244;SDS011;5167;52.164;10.530;2023-02-11T02:40:19;52.60;;;22.83;;
10244;SDS011;5167;52.164;10.530;2023-02-11T02:42:50;56.63;;;23.40;;
10244;SDS011;5167;52.164;10.530;2023-02-11T02:45:17;50.00;;;23.50;;
10244;SDS011;5167;52.164;10.530;2023-02-11T02:47:44;48.07;;;23.90;;
10244;SDS011;5167;52.164;10.530;2023-02-11T02:50:09;54.23;;;22.70;;
10244;SDS011;5167;52.164;10.530;2023-02-11T02:52:52;55.90;;;26.33;;
10244;SDS011;5167;52.164;10.530;2023-02-11T02:55:41;50.03;;;23.83;;
10244;SDS011;5167;52.164;10.530;2023-02-11T02:58:24;55.13;;;24.23;;
10244;SDS011;5167;52.164;10.530;2023-02-11T03:01:12;67.47;;;26.57;;
10244;SDS011;5167;52.164;10.530;2023-02-11T03:04:28;52.70;;;24.73;;
10244;SDS011;5167;52.164;10.530;2023-02-11T03:09:58;51.27;;;23.67;;
10244;SDS011;5167;52.164;10.530;2023-02-11T03:12:30;53.60;;;23.50;;
10244;SDS011;5167;52.164;10.530;2023-02-11T03:14:58;52.27;;;23.93;;
10244;SDS011;5167;52.164;10.530;2023-02-11T03:17:26;51.40;;;24.57;;
10244;SDS011;5167;52.164;10.530;2023-02-11T03:19:54;56.77;;;25.00;;
10244;SDS011;5167;52.164;10.530;2023-02-11T03:22:23;53.70;;;24.67;;
10244;SDS011;5167;52.164;10.530;2023-02-11T03:24:51;49.73;;;24.60;;
10244;SDS011;5167;52.164;10.530;2023-02-11T03:30:27;47.80;;;23.80;;
10244;SDS011;5167;52.164;10.530;2023-02-11T03:33:02;51.63;;;24.33;;
10244;SDS011;5167;52.164;10.530;2023-02-11T03:35:40;51.20;;;24.50;;
10244;SDS011;5167;52.164;10.530;2023-02-11T03:38:19;56.93;;;24.10;;
10244;SDS011;5167;52.164;10.530;2023-02-11T03:40:49;46.73;;;23.90;;
10244;SDS011;5167;52.164;10.530;2023-02-11T03:43:21;48.87;;;22.87;;
10244;SDS011;5167;52.164;10.530;2023-02-11T03:46:04;52.30;;;23.47;;
10244;SDS011;5167;52.164;10.530;2023-02-11T03:48:35;45.80;;;21.53;;
10244;SDS011;5167;52.164;10.530;2023-02-11T03:51:05;53.50;;;23.80;;
10244;SDS011;5167;52.164;10.530;2023-02-11T03:53:33;47.17;;;23.40;;
10244;SDS011;5167;52.164;10.530;2023-02-11T03:56:01;41.37;;;20.67;;
10244;SDS011;5167;52.164;10.530;2023-02-11T03:58:31;41.93;;;21.70;;
10244;SDS011;5167;52.164;10.530;2023-02-11T04:00:57;47.00;;;22.37;;
10244;SDS011;5167;52.164;10.530;2023-02-11T04:03:23;45.43;;;21.53;;
10244;SDS011;5167;52.164;10.530;2023-02-11T04:05:48;44.40;;;21.03;;
10244;SDS011;5167;52.164;10.530;2023-02-11T04:08:14;44.23;;;21.10;;
10244;SDS011;5167;52.164;10.530;2023-02-11T04:10:39;41.53;;;21.33;;
10244;SDS011;5167;52.164;10.530;2023-02-11T04:13:05;48.33;;;22.20;;
10244;SDS011;5167;52.164;10.530;2023-02-11T04:15:31;48.67;;;22.07;;
10244;SDS011;5167;52.164;10.530;2023-02-11T04:17:56;46.33;;;22.83;;
10244;SDS011;5167;52.164;10.530;2023-02-11T04:20:22;46.80;;;21.83;;
10244;SDS011;5167;52.164;10.530;2023-02-11T04:22:48;44.10;;;21.60;;
10244;SDS011;5167;52.164;10.530;2023-02-11T04:25:13;50.43;;;22.90;;
10244;SDS011;5167;52.164;10.530;2023-02-11T04:27:39;47.83;;;21.60;;
10244;SDS011;5167;52.164;10.530;2023-02-11T04:30:06;43.73;;;21.10;;
10244;SDS011;5167;52.164;10.530;2023-02-11T04:32:32;48.30;;;23.43;;
10244;SDS011;5167;52.164;10.530;2023-02-11T04:34:57;45.60;;;22.47;;
10244;SDS011;5167;52.164;10.530;2023-02-11T04:37:23;51.40;;;22.13;;
10244;SDS011;5167;52.164;10.530;2023-02-11T04:39:48;54.67;;;24.40;;
10244;SDS011;5167;52.164;10.530;2023-02-11T04:42:14;44.80;;;23.37;;
10244;SDS011;5167;52.164;10.530;2023-02-11T04:44:39;53.57;;;25.27;;
10244;SDS011;5167;52.164;10.530;2023-02-11T04:47:05;51.57;;;26.00;;
10244;SDS011;5167;52.164;10.530;2023-02-11T04:49:31;50.20;;;24.80;;
10244;SDS011;5167;52.164;10.530;2023-02-11T04:51:56;49.30;;;23.30;;
10244;SDS011;5167;52.164;10.530;2023-02-11T04:54:22;59.00;;;24.87;;
10244;SDS011;5167;52.164;10.530;2023-02-11T04:56:47;48.53;;;23.10;;
10244;SDS011;5167;52.164;10.530;2023-02-11T04:59:14;54.57;;;23.97;;
10244;SDS011;5167;52.164;10.530;2023-02-11T05:01:39;55.53;;;24.67;;
10244;SDS011;5167;52.164;10.530;2023-02-11T05:04:05;50.17;;;23.33;;
10244;SDS011;5167;52.164;10.530;2023-02-11T05:06:31;54.17;;;25.17;;
10244;SDS011;5167;52.164;10.530;2023-02-11T05:08:56;50.50;;;24.47;;
10244;SDS011;5167;52.164;10.530;2023-02-11T05:11:23;53.33;;;24.90;;
10244;SDS011;5167;52.164;10.530;2023-02-11T05:13:49;52.87;;;24.07;;
10244;SDS011;5167;52.164;10.530;2023-02-11T05:16:15;51.63;;;23.83;;
10244;SDS011;5167;52.164;10.530;2023-02-11T05:18:42;52.60;;;24.00;;
10244;SDS011;5167;52.164;10.530;2023-02-11T05:21:10;48.97;;;24.60;;
10244;SDS011;5167;52.164;10.530;2023-02-11T05:23:40;54.27;;;25.80;;
10244;SDS011;5167;52.164;10.530;2023-02-11T05:26:06;51.73;;;24.57;;
10244;SDS011;5167;52.164;10.530;2023-02-11T05:28:33;56.10;;;23.97;;
10244;SDS011;5167;52.164;10.530;2023-02-11T05:30:59;44.50;;;23.50;;
10244;SDS011;5167;52.164;10.530;2023-02-11T05:33:25;49.47;;;22.90;;
10244;SDS011;5167;52.164;10.530;2023-02-11T05:35:51;45.50;;;22.57;;
10244;SDS011;5167;52.164;10.530;2023-02-11T05:38:21;49.53;;;22.90;;
10244;SDS011;5167;52.164;10.530;2023-02-11T05:40:47;50.70;;;23.00;;
10244;SDS011;5167;52.164;10.530;2023-02-11T05:43:12;53.70;;;23.93;;
10244;SDS011;5167;52.164;10.530;2023-02-11T05:45:38;47.93;;;23.47;;
10244;SDS011;5167;52.164;10.530;2023-02-11T05:48:04;45.63;;;23.43;;
10244;SDS011;5167;52.164;10.530;2023-02-11T05:50:29;47.27;;;22.70;;
10244;SDS011;5167;52.164;10.530;2023-02-11T05:52:55;50.50;;;24.07;;
10244;SDS011;5167;52.164;10.530;2023-02-11T05:55:21;49.60;;;22.10;;
10244;SDS011;5167;52.164;10.530;2023-02-11T05:57:46;44.00;;;21.87;;
10244;SDS011;5167;52.164;10.530;2023-02-11T06:00:12;44.23;;;22.60;;
10244;SDS011;5167;52.164;10.530;2023-02-11T06:02:39;46.63;;;22.23;;
10244;SDS011;5167;52.164;10.530;2023-02-11T06:05:05;43.50;;;20.80;;
10244;SDS011;5167;52.164;10.530;2023-02-11T06:07:31;46.63;;;21.90;;
10244;SDS011;5167;52.164;10.530;2023-02-11T06:09:56;39.23;;;21.17;;
10244;SDS011;5167;52.164;10.530;2023-02-11T06:12:23;40.00;;;19.83;;
10244;SDS011;5167;52.164;10.530;2023-02-11T06:14:49;39.47;;;21.27;;
10244;SDS011;5167;52.164;10.530;2023-02-11T06:17:14;37.13;;;19.20;;
10244;SDS011;5167;52.164;10.530;2023-02-11T06:19:40;36.03;;;18.70;;
10244;SDS011;5167;52.164;10.530;2023-02-11T06:22:09;37.97;;;19.30;;
10244;SDS011;5167;52.164;10.530;2023-02-11T06:24:34;40.07;;;19.73;;
10244;SDS011;5167;52.164;10.530;2023-02-11T06:27:01;37.87;;;20.10;;
10244;SDS011;5167;52.164;10.530;2023-02-11T06:29:28;40.43;;;19.67;;
10244;SDS011;5167;52.164;10.530;2023-02-11T06:31:53;36.90;;;19.97;;
10244;SDS011;5167;52.164;10.530;2023-02-11T06:34:19;40.70;;;20.60;;
10244;SDS011;5167;52.164;10.530;2023-02-11T06:36:44;35.10;;;19.13;;
10244;SDS011;5167;52.164;10.530;2023-02-11T06:39:11;38.60;;;19.80;;
10244;SDS011;5167;52.164;10.530;2023-02-11T06:41:37;34.37;;;19.13;;
10244;SDS011;5167;52.164;10.530;2023-02-11T06:44:02;36.63;;;20.30;;
10244;SDS011;5167;52.164;10.530;2023-02-11T06:46:28;40.07;;;20.87;;
10244;SDS011;5167;52.164;10.530;2023-02-11T06:48:54;38.63;;;19.67;;
10244;SDS011;5167;52.164;10.530;2023-02-11T06:51:20;35.47;;;18.90;;
10244;SDS011;5167;52.164;10.530;2023-02-11T06:53:46;39.20;;;19.60;;
10244;SDS011;5167;52.164;10.530;2023-02-11T06:56:13;40.03;;;20.17;;
10244;SDS011;5167;52.164;10.530;2023-02-11T06:58:42;40.00;;;21.23;;
10244;SDS011;5167;52.164;10.530;2023-02-11T07:01:10;45.93;;;21.23;;
10244;SDS011;5167;52.164;10.530;2023-02-11T07:03:38;35.97;;;19.10;;
10244;SDS011;5167;52.164;10.530;2023-02-11T07:06:05;45.73;;;21.60;;
10244;SDS011;5167;52.164;10.530;2023-02-11T07:08:32;44.53;;;19.93;;
10244;SDS011;5167;52.164;10.530;2023-02-11T07:10:59;38.80;;;19.30;;
10244;SDS011;5167;52.164;10.530;2023-02-11T07:13:24;39.20;;;19.47;;
10244;SDS011;5167;52.164;10.530;2023-02-11T07:15:50;44.83;;;20.20;;
10244;SDS011;5167;52.164;10.530;2023-02-11T07:18:16;45.17;;;20.53;;
10244;SDS011;5167;52.164;10.530;2023-02-11T07:20:42;33.20;;;19.13;;
10244;SDS011;5167;52.164;10.530;2023-02-11T07:23:07;38.93;;;18.63;;
10244;SDS011;5167;52.164;10.530;2023-02-11T07:25:34;38.67;;;19.73;;
10244;SDS011;5167;52.164;10.530;2023-02-11T07:28:00;41.37;;;20.33;;
10244;SDS011;5167;52.164;10.530;2023-02-11T07:30:26;39.93;;;20.17;;
10244;SDS011;5167;52.164;10.530;2023-02-11T07:32:51;47.73;;;21.07;;
10244;SDS011;5167;52.164;10.530;2023-02-11T07:35:17;50.67;;;21.73;;
10244;SDS011;5167;52.164;10.530;2023-02-11T07:37:43;44.67;;;20.47;;
10244;SDS011;5167;52.164;10.530;2023-02-11T07:40:09;43.33;;;20.97;;
10244;SDS011;5167;52.164;10.530;2023-02-11T07:42:35;40.73;;;19.97;;
10244;SDS011;5167;52.164;10.530;2023-02-11T07:45:00;40.90;;;21.27;;
10244;SDS011;5167;52.164;10.530;2023-02-11T07:47:26;42.47;;;21.13;;
10244;SDS011;5167;52.164;10.530;2023-02-11T07:49:52;39.10;;;19.53;;
10244;SDS011;5167;52.164;10.530;2023-02-11T07:52:18;45.57;;;20.50;;
10244;SDS011;5167;52.164;10.530;2023-02-11T07:54:43;49.30;;;22.27;;
10244;SDS011;5167;52.164;10.530;2023-02-11T07:57:09;38.07;;;19.90;;
10244;SDS011;5167;52.164;10.530;2023-02-11T07:59:35;44.90;;;20.80;;
10244;SDS011;5167;52.164;10.530;2023-02-11T08:02:00;42.83;;;20.97;;
10244;SDS011;5167;52.164;10.530;2023-02-11T08:04:26;47.37;;;23.07;;
10244;SDS011;5167;52.164;10.530;2023-02-11T08:06:52;48.03;;;23.00;;
10244;SDS011;5167;52.164;10.530;2023-02-11T08:09:21;45.67;;;21.00;;
10244;SDS011;5167;52.164;10.530;2023-02-11T08:11:47;52.20;;;22.50;;
10244;SDS011;5167;52.164;10.530;2023-02-11T08:14:12;48.63;;;23.37;;
10244;SDS011;5167;52.164;10.530;2023-02-11T08:16:38;50.67;;;24.17;;
10244;SDS011;5167;52.164;10.530;2023-02-11T08:19:05;50.27;;;24.23;;
10244;SDS011;5167;52.164;10.530;2023-02-11T08:21:32;50.00;;;24.20;;
10244;SDS011;5167;52.164;10.530;2023-02-11T08:23:59;49.30;;;23.53;;
10244;SDS011;5167;52.164;10.530;2023-02-11T08:26:27;46.53;;;23.60;;
10244;SDS011;5167;52.164;10.530;2023-02-11T08:28:54;59.17;;;25.17;;
10244;SDS011;5167;52.164;10.530;2023-02-11T08:31:21;52.67;;;24.50;;
10244;SDS011;5167;52.164;10.530;2023-02-11T08:33:48;61.57;;;26.83;;
10244;SDS011;5167;52.164;10.530;2023-02-11T08:36:19;55.80;;;23.73;;
10244;SDS011;5167;52.164;10.530;2023-02-11T08:38:47;54.57;;;26.80;;
10244;SDS011;5167;52.164;10.530;2023-02-11T08:41:13;50.47;;;25.17;;
10244;SDS011;5167;52.164;10.530;2023-02-11T08:43:40;62.77;;;27.63;;
10244;SDS011;5167;52.164;10.530;2023-02-11T08:46:07;50.03;;;23.53;;
10244;SDS011;5167;52.164;10.530;2023-02-11T08:48:34;49.53;;;24.43;;
10244;SDS011;5167;52.164;10.530;2023-02-11T08:50:59;51.33;;;24.70;;
10244;SDS011;5167;52.164;10.530;2023-02-11T08:53:29;47.23;;;25.03;;
10244;SDS011;5167;52.164;10.530;2023-02-11T08:55:54;53.00;;;25.73;;
10244;SDS011;5167;52.164;10.530;2023-02-11T08:58:21;51.33;;;26.13;;
10244;SDS011;5167;52.164;10.530;2023-02-11T09:00:47;60.27;;;25.90;;
10244;SDS011;5167;52.164;10.530;2023-02-11T09:03:13;50.77;;;25.43;;
10244;SDS011;5167;52.164;10.530;2023-02-11T09:05:40;52.57;;;23.83;;
10244;SDS011;5167;52.164;10.530;2023-02-11T09:08:10;50.97;;;23.80;;
10244;SDS011;5167;52.164;10.530;2023-02-11T09:10:36;56.57;;;23.70;;
10244;SDS011;5167;52.164;10.530;2023-02-11T09:13:02;53.80;;;24.43;;
10244;SDS011;5167;52.164;10.530;2023-02-11T09:15:27;49.30;;;23.57;;
10244;SDS011;5167;52.164;10.530;2023-02-11T09:17:53;55.67;;;24.17;;
10244;SDS011;5167;52.164;10.530;2023-02-11T09:20:19;49.57;;;24.10;;
10244;SDS011;5167;52.164;10.530;2023-02-11T09:22:45;56.17;;;23.63;;
10244;SDS011;5167;52.164;10.530;2023-02-11T09:25:11;65.87;;;34.90;;
10244;SDS011;5167;52.164;10.530;2023-02-11T09:27:37;55.63;;;25.77;;
10244;SDS011;5167;52.164;10.530;2023-02-11T09:30:02;58.27;;;31.33;;
10244;SDS011;5167;52.164;10.530;2023-02-11T09:32:29;58.17;;;28.70;;
10244;SDS011;5167;52.164;10.530;2023-02-11T09:34:54;97.37;;;42.00;;
10244;SDS011;5167;52.164;10.530;2023-02-11T09:37:20;54.00;;;26.20;;
10244;SDS011;5167;52.164;10.530;2023-02-11T09:39:45;52.43;;;24.47;;
10244;SDS011;5167;52.164;10.530;2023-02-11T09:44:37;56.33;;;24.83;;
10244;SDS011;5167;52.164;10.530;2023-02-11T09:47:04;58.30;;;27.60;;
10244;SDS011;5167;52.164;10.530;2023-02-11T09:49:46;61.83;;;27.97;;
10244;SDS011;5167;52.164;10.530;2023-02-11T09:52:27;53.47;;;24.53;;
10244;SDS011;5167;52.164;10.530;2023-02-11T09:54:58;54.43;;;26.10;;
10244;SDS011;5167;52.164;10.530;2023-02-11T09:57:27;54.00;;;27.97;;
10244;SDS011;5167;52.164;10.530;2023-02-11T09:59:58;66.80;;;37.07;;
10244;SDS011;5167;52.164;10.530;2023-02-11T10:02:35;49.73;;;24.70;;
10244;SDS011;5167;52.164;10.530;2023-02-11T10:05:23;55.67;;;27.50;;
10244;SDS011;5167;52.164;10.530;2023-02-11T10:08:10;52.57;;;24.70;;
10244;SDS011;5167;52.164;10.530;2023-02-11T10:10:49;51.80;;;23.57;;
10244;SDS011;5167;52.164;10.530;2023-02-11T10:13:28;49.70;;;21.93;;
10244;SDS011;5167;52.164;10.530;2023-02-11T10:16:04;50.17;;;23.30;;
10244;SDS011;5167;52.164;10.530;2023-02-11T10:18:57;54.93;;;23.97;;
10244;SDS011;5167;52.164;10.530;2023-02-11T10:21:39;47.70;;;22.27;;
10244;SDS011;5167;52.164;10.530;2023-02-11T10:24:11;51.30;;;23.20;;
10244;SDS011;5167;52.164;10.530;2023-02-11T10:26:39;51.60;;;22.63;;
10244;SDS011;5167;52.164;10.530;2023-02-11T10:29:12;41.00;;;21.03;;
10244;SDS011;5167;52.164;10.530;2023-02-11T10:31:51;54.83;;;22.73;;
10244;SDS011;5167;52.164;10.530;2023-02-11T10:34:17;61.77;;;24.37;;
10244;SDS011;5167;52.164;10.530;2023-02-11T10:36:43;49.87;;;22.17;;
10244;SDS011;5167;52.164;10.530;2023-02-11T10:39:13;52.80;;;21.17;;
10244;SDS011;5167;52.164;10.530;2023-02-11T10:42:00;51.57;;;22.30;;
10244;SDS011;5167;52.164;10.530;2023-02-11T10:44:31;49.13;;;21.27;;
10244;SDS011;5167;52.164;10.530;2023-02-11T10:47:17;48.43;;;20.87;;
10244;SDS011;5167;52.164;10.530;2023-02-11T10:49:46;52.20;;;22.00;;
10244;SDS011;5167;52.164;10.530;2023-02-11T10:52:22;54.17;;;20.87;;
10244;SDS011;5167;52.164;10.530;2023-02-11T11:02:51;43.53;;;18.90;;
10244;SDS011;5167;52.164;10.530;2023-02-11T11:05:20;45.13;;;20.43;;
10244;SDS011;5167;52.164;10.530;2023-02-11T11:07:58;45.00;;;20.47;;
10244;SDS011;5167;52.164;10.530;2023-02-11T11:10:39;39.33;;;18.77;;
10244;SDS011;5167;52.164;10.530;2023-02-11T11:16:05;40.47;;;19.80;;
10244;SDS011;5167;52.164;10.530;2023-02-11T11:18:31;40.37;;;19.00;;
10244;SDS011;5167;52.164;10.530;2023-02-11T11:20:57;42.67;;;20.53;;
10244;SDS011;5167;52.164;10.530;2023-02-11T11:23:24;40.37;;;19.83;;
10244;SDS011;5167;52.164;10.530;2023-02-11T11:26:08;42.10;;;19.33;;
10244;SDS011;5167;52.164;10.530;2023-02-11T11:31:14;46.33;;;20.27;;
10244;SDS011;5167;52.164;10.530;2023-02-11T11:33:43;45.23;;;20.47;;
10244;SDS011;5167;52.164;10.530;2023-02-11T11:36:11;44.73;;;19.40;;
10244;SDS011;5167;52.164;10.530;2023-02-11T11:38:54;42.97;;;19.70;;
10244;SDS011;5167;52.164;10.530;2023-02-11T11:41:26;46.33;;;20.37;;
10244;SDS011;5167;52.164;10.530;2023-02-11T11:44:02;43.30;;;20.30;;
10244;SDS011;5167;52.164;10.530;2023-02-11T11:46:46;43.73;;;19.43;;
10244;SDS011;5167;52.164;10.530;2023-02-11T11:49:53;50.17;;;20.87;;
10244;SDS011;5167;52.164;10.530;2023-02-11T11:58:17;43.57;;;20.90;;
10244;SDS011;5167;52.164;10.530;2023-02-11T12:04:07;48.30;;;20.07;;
10244;SDS011;5167;52.164;10.530;2023-02-11T12:13:04;39.13;;;18.33;;
10244;SDS011;5167;52.164;10.530;2023-02-11T12:18:55;39.80;;;18.23;;
10244;SDS011;5167;52.164;10.530;2023-02-11T12:21:45;37.20;;;17.73;;
10244;SDS011;5167;52.164;10.530;2023-02-11T12:38:26;31.47;;;16.83;;
10244;SDS011;5167;52.164;10.530;2023-02-11T12:41:24;34.77;;;16.53;;
10244;SDS011;5167;52.164;10.530;2023-02-11T12:50:44;34.20;;;16.83;;
10244;SDS011;5167;52.164;10.530;2023-02-11T13:05:33;43.13;;;17.10;;
10244;SDS011;5167;52.164;10.530;2023-02-11T13:11:16;42.47;;;17.07;;
10244;SDS011;5167;52.164;10.530;2023-02-11T13:13:48;30.33;;;16.33;;
10244;SDS011;5167;52.164;10.530;2023-02-11T13:16:29;35.17;;;15.43;;
10244;SDS011;5167;52.164;10.530;2023-02-11T13:19:44;29.93;;;14.20;;
10244;SDS011;5167;52.164;10.530;2023-02-11T13:22:00;28.37;;;13.77;;
10244;SDS011;5167;52.164;10.530;2023-02-11T13:38:15;27.27;;;13.23;;
10244;SDS011;5167;52.164;10.530;2023-02-11T13:40:49;25.90;;;12.73;;
10244;SDS011;5167;52.164;10.530;2023-02-11T13:43:23;23.40;;;13.67;;
10244;SDS011;5167;52.164;10.530;2023-02-11T13:45:55;29.73;;;13.73;;
10244;SDS011;5167;52.164;10.530;2023-02-11T13:48:35;30.27;;;15.20;;
10244;SDS011;5167;52.164;10.530;2023-02-11T13:51:14;27.80;;;13.83;;
10244;SDS011;5167;52.164;10.530;2023-02-11T13:53:46;29.33;;;14.90;;
10244;SDS011;5167;52.164;10.530;2023-02-11T13:56:59;27.30;;;13.87;;
10244;SDS011;5167;52.164;10.530;2023-02-11T14:02:04;28.33;;;14.27;;
10244;SDS011;5167;52.164;10.530;2023-02-11T14:11:10;38.60;;;15.60;;
10244;SDS011;5167;52.164;10.530;2023-02-11T14:17:15;30.90;;;15.47;;
10244;SDS011;5167;52.164;10.530;2023-02-11T14:19:39;29.83;;;14.73;;
10244;SDS011;5167;52.164;10.530;2023-02-11T14:24:47;29.60;;;14.63;;
10244;SDS011;5167;52.164;10.530;2023-02-11T14:27:18;32.23;;;15.50;;
10244;SDS011;5167;52.164;10.530;2023-02-11T14:30:28;33.70;;;15.40;;
10244;SDS011;5167;52.164;10.530;2023-02-11T14:36:18;28.50;;;13.87;;
10244;SDS011;5167;52.164;10.530;2023-02-11T14:41:54;27.00;;;13.67;;
10244;SDS011;5167;52.164;10.530;2023-02-11T14:44:22;32.37;;;14.90;;
10244;SDS011;5167;52.164;10.530;2023-02-11T14:46:51;29.57;;;13.80;;
10244;SDS011;5167;52.164;10.530;2023-02-11T14:49:35;30.80;;;16.33;;
10244;SDS011;5167;52.164;10.530;2023-02-11T14:54:56;38.10;;;16.83;;
10244;SDS011;5167;52.164;10.530;2023-02-11T14:57:45;31.70;;;15.93;;
10244;SDS011;5167;52.164;10.530;2023-02-11T15:00:16;31.33;;;16.90;;
10244;SDS011;5167;52.164;10.530;2023-02-11T15:02:45;26.77;;;14.20;;
10244;SDS011;5167;52.164;10.530;2023-02-11T15:07:46;32.97;;;16.03;;
10244;SDS011;5167;52.164;10.530;2023-02-11T15:10:36;32.97;;;14.43;;
10244;SDS011;5167;52.164;10.530;2023-02-11T15:13:07;29.57;;;15.80;;
10244;SDS011;5167;52.164;10.530;2023-02-11T15:15:40;36.97;;;14.97;;
10244;SDS011;5167;52.164;10.530;2023-02-11T15:18:06;34.03;;;14.53;;
10244;SDS011;5167;52.164;10.530;2023-02-11T15:20:36;28.87;;;13.83;;
10244;SDS011;5167;52.164;10.530;2023-02-11T15:23:06;25.17;;;13.17;;
10244;SDS011;5167;52.164;10.530;2023-02-11T15:25:42;23.53;;;13.07;;
10244;SDS011;5167;52.164;10.530;2023-02-11T15:28:22;29.33;;;13.63;;
10244;SDS011;5167;52.164;10.530;2023-02-11T15:30:56;26.30;;;13.37;;
10244;SDS011;5167;52.164;10.530;2023-02-11T15:33:27;24.03;;;13.37;;
10244;SDS011;5167;52.164;10.530;2023-02-11T15:35:56;24.33;;;13.97;;
10244;SDS011;5167;52.164;10.530;2023-02-11T15:38:23;30.43;;;13.87;;
10244;SDS011;5167;52.164;10.530;2023-02-11T15:40:54;24.40;;;12.97;;
10244;SDS011;5167;52.164;10.530;2023-02-11T15:43:22;26.43;;;13.97;;
10244;SDS011;5167;52.164;10.530;2023-02-11T15:48:22;27.57;;;13.63;;
10244;SDS011;5167;52.164;10.530;2023-02-11T15:52:04;21.97;;;12.50;;
10244;SDS011;5167;52.164;10.530;2023-02-11T15:54:06;26.60;;;12.97;;
10244;SDS011;5167;52.164;10.530;2023-02-11T15:56:41;26.47;;;12.80;;
10244;SDS011;5167;52.164;10.530;2023-02-11T15:59:21;29.73;;;13.30;;
10244;SDS011;5167;52.164;10.530;2023-02-11T16:01:52;27.37;;;12.93;;
10244;SDS011;5167;52.164;10.530;2023-02-11T16:04:25;27.50;;;13.13;;
10244;SDS011;5167;52.164;10.530;2023-02-11T16:06:52;27.20;;;13.30;;
10244;SDS011;5167;52.164;10.530;2023-02-11T16:14:20;25.60;;;12.90;;
10244;SDS011;5167;52.164;10.530;2023-02-11T16:16:57;25.90;;;13.60;;
10244;SDS011;5167;52.164;10.530;2023-02-11T16:19:26;23.23;;;12.20;;
10244;SDS011;5167;52.164;10.530;2023-02-11T16:21:53;27.23;;;12.27;;
10244;SDS011;5167;52.164;10.530;2023-02-11T16:24:24;25.50;;;13.83;;
10244;SDS011;5167;52.164;10.530;2023-02-11T16:27:17;25.03;;;13.20;;
10244;SDS011;5167;52.164;10.530;2023-02-11T16:29:48;25.67;;;12.90;;
10244;SDS011;5167;52.164;10.530;2023-02-11T16:32:19;22.20;;;13.70;;
10244;SDS011;5167;52.164;10.530;2023-02-11T16:34:47;22.60;;;12.90;;
10244;SDS011;5167;52.164;10.530;2023-02-11T16:37:14;27.43;;;13.33;;
10244;SDS011;5167;52.164;10.530;2023-02-11T16:39:53;26.27;;;13.97;;
10244;SDS011;5167;52.164;10.530;2023-02-11T16:42:19;24.33;;;13.00;;
10244;SDS011;5167;52.164;10.530;2023-02-11T16:44:45;28.75;;;14.45;;
10244;SDS011;5167;52.164;10.530;2023-02-11T16:50:49;24.57;;;12.27;;
10244;SDS011;5167;52.164;10.530;2023-02-11T16:53:17;27.70;;;13.97;;
10244;SDS011;5167;52.164;10.530;2023-02-11T16:55:45;29.37;;;14.37;;
10244;SDS011;5167;52.164;10.530;2023-02-11T16:58:11;26.43;;;13.20;;
10244;SDS011;5167;52.164;10.530;2023-02-11T17:00:40;22.90;;;13.40;;
10244;SDS011;5167;52.164;10.530;2023-02-11T17:03:09;25.83;;;14.37;;
10244;SDS011;5167;52.164;10.530;2023-02-11T17:05:40;31.20;;;14.43;;
10244;SDS011;5167;52.164;10.530;2023-02-11T17:08:07;27.93;;;14.13;;
10244;SDS011;5167;52.164;10.530;2023-02-11T17:10:37;30.67;;;16.53;;
10244;SDS011;5167;52.164;10.530;2023-02-11T17:13:03;28.83;;;14.97;;